Terminal Aerodrome Forecast
Issued by NWS Cleveland, OH

Home | Current Version | Previous Version | Text Only | Print | Product List | Glossary Off
Versions: 1 2 3 4 5 6 7 8 9 10 11 12 13 14

000
FTUS41 KCLE 312324
TAFMFD
TAF
KMFD 312324Z 0100/0124 28010KT P6SM SCT050 BKN110
     FM010200 25006KT P6SM SKC
     FM011700 27010G18KT P6SM SCT050=

USA.gov is the U.S. government's official web portal to all federal, state and local government web resources and services.